Time;durP1;ratioP1;P1;durP2;ratioP2;P2;SDS_P1;SDS_P2;PMS_P1;PMS_P2;Temp;Humidity;BMP_temperature;BMP_pressure;BME280_temperature;BME280_humidity;BME280_pressure;Samples;Min_cycle;Max_cycle;Signal;HPM_P1;HPM_P2
2021/01/30 00:00:24;;;;;;;4.20;3.80;;;;;;;-0.38;100.00;99235.16;5071794;28;20191;-68
2021/01/30 00:02:53;;;;;;;4.97;4.30;;;;;;;-0.45;100.00;99225.69;5056170;28;20194;-67
2021/01/30 00:05:21;;;;;;;5.00;4.30;;;;;;;-0.41;100.00;99220.69;5055024;28;20188;-68
2021/01/30 00:07:48;;;;;;;4.50;3.90;;;;;;;-0.41;100.00;99215.38;5019410;28;20214;-68
2021/01/30 00:10:17;;;;;;;4.40;3.90;;;;;;;-0.45;100.00;99217.69;5051246;28;20202;-68
2021/01/30 00:12:43;;;;;;;4.63;4.00;;;;;;;-0.41;100.00;99223.38;5018846;28;20273;-68
2021/01/30 00:15:10;;;;;;;6.23;5.13;;;;;;;-0.46;100.00;99234.72;5034108;28;20188;-68
2021/01/30 00:17:38;;;;;;;6.50;4.37;;;;;;;-0.45;100.00;99248.88;5018787;28;20183;-68
2021/01/30 00:20:05;;;;;;;6.33;4.63;;;;;;;-0.52;100.00;99267.66;5035237;28;20305;-67
2021/01/30 00:22:30;;;;;;;6.13;5.20;;;;;;;-0.51;100.00;99279.13;5050647;28;20226;-67
2021/01/30 00:24:56;;;;;;;6.60;5.13;;;;;;;-0.48;100.00;99278.66;5050509;28;20176;-68
2021/01/30 00:27:22;;;;;;;6.20;4.40;;;;;;;-0.49;100.00;99266.41;5034299;28;20586;-67
2021/01/30 00:29:48;;;;;;;6.17;4.97;;;;;;;-0.53;100.00;99259.91;5018539;28;20261;-68
2021/01/30 00:32:15;;;;;;;6.30;4.63;;;;;;;-0.51;100.00;99271.13;5017589;28;20246;-68
2021/01/30 00:34:40;;;;;;;5.10;4.17;;;;;;;-0.57;100.00;99274.75;5034617;28;20232;-68
2021/01/30 00:37:17;;;;;;;5.40;4.27;;;;;;;-0.65;100.00;99289.25;5034135;28;20621;-68
2021/01/30 00:39:43;;;;;;;5.20;4.03;;;;;;;-0.67;100.00;99293.19;5051369;28;20260;-69
2021/01/30 00:42:12;;;;;;;5.37;4.43;;;;;;;-0.68;100.00;99300.41;5033620;28;20301;-68
2021/01/30 00:44:43;;;;;;;5.33;3.77;;;;;;;-0.67;100.00;99298.53;5017722;28;20176;-68
2021/01/30 00:47:09;;;;;;;5.33;4.47;;;;;;;-0.65;100.00;99299.09;5034463;28;20223;-67
2021/01/30 00:49:34;;;;;;;5.17;4.20;;;;;;;-0.78;100.00;99299.34;5018889;28;20199;-66
2021/01/30 00:52:00;;;;;;;4.20;3.67;;;;;;;-0.87;100.00;99311.41;5051240;28;20239;-68
2021/01/30 00:54:26;;;;;;;5.30;4.07;;;;;;;-0.88;100.00;99314.28;5018265;28;20179;-66
2021/01/30 00:56:53;;;;;;;5.93;5.00;;;;;;;-0.81;100.00;99313.13;5033896;28;20317;-66
2021/01/30 00:59:21;;;;;;;5.63;4.53;;;;;;;-0.83;100.00;99317.88;5033528;28;20204;-66
2021/01/30 01:01:47;;;;;;;5.10;4.53;;;;;;;-0.88;100.00;99335.59;5050201;28;20594;-66
2021/01/30 01:04:20;;;;;;;4.23;3.73;;;;;;;-0.81;100.00;99331.78;5037557;28;20183;-67
2021/01/30 01:06:46;;;;;;;6.33;4.87;;;;;;;-0.82;100.00;99346.16;5038473;28;20306;-67
2021/01/30 01:09:16;;;;;;;4.13;3.70;;;;;;;-0.81;100.00;99346.97;5054543;28;20182;-66
2021/01/30 01:11:43;;;;;;;5.40;4.00;;;;;;;-0.86;100.00;99355.66;5053187;28;20233;-68
2021/01/30 01:14:08;;;;;;;4.70;4.27;;;;;;;-0.82;100.00;99366.63;5053672;28;20597;-68
2021/01/30 01:16:36;;;;;;;5.33;4.17;;;;;;;-0.80;100.00;99376.03;5052727;28;20235;-68
2021/01/30 01:19:05;;;;;;;6.07;4.13;;;;;;;-0.73;100.00;99371.41;5070532;28;20247;-68
2021/01/30 01:21:31;;;;;;;4.87;4.37;;;;;;;-0.63;100.00;99376.97;5053043;28;20233;-68
2021/01/30 01:23:56;;;;;;;5.00;3.90;;;;;;;-0.63;100.00;99382.28;5053850;28;20181;-68
2021/01/30 01:26:24;;;;;;;6.03;4.50;;;;;;;-0.57;100.00;99397.34;5075676;28;20221;-68
2021/01/30 01:28:50;;;;;;;6.53;4.00;;;;;;;-0.66;100.00;99407.56;5087205;28;20204;-68
2021/01/30 01:31:16;;;;;;;5.27;4.23;;;;;;;-0.61;100.00;99405.00;5089888;28;20651;-68
2021/01/30 01:33:42;;;;;;;6.97;4.80;;;;;;;-0.41;100.00;99412.66;5090625;28;20616;-69
2021/01/30 01:36:08;;;;;;;6.50;4.70;;;;;;;-0.51;100.00;99420.41;5054579;28;20225;-68
2021/01/30 01:38:33;;;;;;;6.07;4.70;;;;;;;-0.56;100.00;99426.44;5090298;28;20206;-68
2021/01/30 01:41:00;;;;;;;6.60;4.90;;;;;;;-0.51;100.00;99433.72;5089506;28;20229;-66
2021/01/30 01:43:26;;;;;;;6.23;4.57;;;;;;;-0.49;100.00;99427.16;5040349;28;20219;-68
2021/01/30 01:46:16;;;;;;;6.67;5.50;;;;;;;-0.55;100.00;99425.41;5056386;28;20218;-68
2021/01/30 01:48:47;;;;;;;8.03;4.90;;;;;;;-0.29;100.00;99423.06;5090417;28;20217;-68
2021/01/30 01:51:16;;;;;;;7.83;5.00;;;;;;;-0.26;100.00;99416.44;5039971;28;20221;-66
2021/01/30 01:53:42;;;;;;;6.40;5.57;;;;;;;-0.38;100.00;99421.81;5064531;28;20276;-68
2021/01/30 01:56:22;;;;;;;8.63;6.63;;;;;;;-0.45;100.00;99432.81;5059732;28;20222;-69
2021/01/30 01:58:52;;;;;;;6.67;5.93;;;;;;;-0.38;100.00;99440.47;5070913;28;20210;-68
2021/01/30 02:01:20;;;;;;;7.83;5.93;;;;;;;-0.36;100.00;99438.38;5072673;28;20228;-68
2021/01/30 02:03:53;;;;;;;8.87;6.30;;;;;;;-0.41;100.00;99439.31;5041750;28;20196;-68
2021/01/30 02:06:19;;;;;;;7.70;6.37;;;;;;;-0.35;100.00;99439.19;5073072;28;20297;-68
2021/01/30 02:08:45;;;;;;;10.30;7.03;;;;;;;-0.26;100.00;99438.59;5053482;28;20289;-68
2021/01/30 02:11:12;;;;;;;9.37;6.83;;;;;;;-0.25;100.00;99436.75;5052529;28;20313;-68
2021/01/30 02:13:46;;;;;;;9.20;6.70;;;;;;;-0.30;100.00;99437.44;5036296;28;20254;-68
2021/01/30 02:16:36;;;;;;;9.70;7.40;;;;;;;-0.32;100.00;99444.06;5070251;28;20297;-68
2021/01/30 02:19:17;;;;;;;9.17;6.90;;;;;;;-0.19;100.00;99441.94;5070518;28;20293;-67
2021/01/30 02:22:03;;;;;;;9.53;7.30;;;;;;;-0.25;100.00;99445.56;5053339;28;20229;-67
2021/01/30 02:24:53;;;;;;;9.50;6.73;;;;;;;-0.27;100.00;99452.97;5053094;28;20193;-68
2021/01/30 02:27:40;;;;;;;11.50;7.80;;;;;;;-0.39;100.00;99448.69;5069567;28;20280;-68
2021/01/30 02:30:30;;;;;;;10.97;8.13;;;;;;;-0.32;100.00;99447.53;5069104;28;20207;-72
2021/01/30 02:33:13;;;;;;;11.97;8.10;;;;;;;-0.39;100.00;99465.50;5070492;28;20183;-68
2021/01/30 02:36:03;;;;;;;12.33;8.33;;;;;;;-0.35;100.00;99466.69;5068690;28;20222;-68
2021/01/30 02:38:29;;;;;;;12.27;8.13;;;;;;;-0.33;100.00;99469.09;5070935;28;20221;-68
2021/01/30 02:41:05;;;;;;;12.83;8.27;;;;;;;-0.30;100.00;99476.63;5052546;28;20219;-68
2021/01/30 02:43:34;;;;;;;12.20;9.00;;;;;;;-0.32;100.00;99487.53;5053560;28;20186;-68
2021/01/30 02:46:03;;;;;;;12.80;9.13;;;;;;;-0.42;100.00;99501.66;5051342;28;20245;-68
2021/01/30 02:48:31;;;;;;;12.97;8.80;;;;;;;-0.37;100.00;99490.09;5039643;28;20740;-68
2021/01/30 02:51:03;;;;;;;12.70;8.90;;;;;;;-0.30;100.00;99501.44;5056171;28;20230;-68
2021/01/30 02:53:40;;;;;;;14.23;9.80;;;;;;;-0.22;100.00;99497.59;5024253;28;20316;-68
2021/01/30 02:56:05;;;;;;;12.80;8.93;;;;;;;-0.06;100.00;99500.38;5023628;28;20237;-68
2021/01/30 02:58:38;;;;;;;16.13;10.63;;;;;;;-0.17;100.00;99511.88;5056578;28;20219;-69
2021/01/30 03:01:03;;;;;;;14.77;9.30;;;;;;;-0.06;100.00;99508.41;5041979;28;20234;-68
2021/01/30 03:03:29;;;;;;;13.07;9.93;;;;;;;0.11;100.00;99512.81;5022881;28;20211;-68
2021/01/30 03:06:01;;;;;;;14.43;10.07;;;;;;;-0.11;100.00;99518.13;5037817;28;20233;-68
2021/01/30 03:08:37;;;;;;;16.93;10.03;;;;;;;0.09;100.00;99516.72;5073119;28;20183;-68
2021/01/30 03:11:14;;;;;;;14.63;10.77;;;;;;;0.09;100.00;99522.06;5039385;28;20219;-68
2021/01/30 03:13:59;;;;;;;14.10;9.87;;;;;;;-0.02;100.00;99525.56;5056640;28;20606;-68
2021/01/30 03:16:27;;;;;;;15.90;10.03;;;;;;;-0.02;100.00;99527.41;5055559;28;20225;-68
2021/01/30 03:19:04;;;;;;;14.63;10.03;;;;;;;0.02;100.00;99537.41;5023210;28;20210;-68
2021/01/30 03:21:32;;;;;;;14.40;9.77;;;;;;;0.17;100.00;99541.22;5040564;28;20261;-68
2021/01/30 03:24:00;;;;;;;15.90;11.23;;;;;;;0.00;100.00;99534.16;5039040;28;20190;-68
2021/01/30 03:26:25;;;;;;;17.00;11.57;;;;;;;0.00;100.00;99539.50;5038755;28;20229;-68
2021/01/30 03:28:53;;;;;;;16.67;11.87;;;;;;;0.01;100.00;99538.44;5056170;28;20175;-68
2021/01/30 03:31:19;;;;;;;18.37;11.90;;;;;;;0.18;100.00;99547.38;5038794;28;20227;-68
2021/01/30 03:33:45;;;;;;;18.50;12.70;;;;;;;0.14;100.00;99547.00;5056081;28;20233;-68
2021/01/30 03:36:10;;;;;;;16.40;11.70;;;;;;;0.17;100.00;99556.44;5071538;28;20227;-68
2021/01/30 03:38:38;;;;;;;18.63;12.60;;;;;;;-0.01;100.00;99558.41;5072821;28;20207;-68
2021/01/30 03:41:04;;;;;;;18.60;12.67;;;;;;;0.02;100.00;99556.09;5055703;28;20242;-68
2021/01/30 03:43:32;;;;;;;17.93;12.80;;;;;;;0.02;100.00;99558.75;5074301;28;20194;-68
2021/01/30 03:45:58;;;;;;;18.17;12.80;;;;;;;0.09;100.00;99560.25;5055864;28;20233;-68
2021/01/30 03:48:24;;;;;;;15.97;11.77;;;;;;;0.27;100.00;99556.66;5039902;28;20183;-68
2021/01/30 03:50:49;;;;;;;16.43;11.97;;;;;;;0.35;100.00;99561.63;5038483;28;20229;-68
2021/01/30 03:53:15;;;;;;;16.63;12.50;;;;;;;0.34;100.00;99570.69;5055707;28;20190;-68
2021/01/30 03:55:42;;;;;;;18.90;12.93;;;;;;;0.17;100.00;99572.44;5038097;28;20237;-68
2021/01/30 03:58:10;;;;;;;18.47;12.63;;;;;;;0.18;100.00;99574.06;5055541;28;20199;-68
2021/01/30 04:00:36;;;;;;;16.90;12.27;;;;;;;0.25;100.00;99570.22;5070430;28;20684;-68
2021/01/30 04:03:04;;;;;;;17.43;12.00;;;;;;;0.21;100.00;99578.94;5056208;28;20240;-68
2021/01/30 04:05:29;;;;;;;18.63;12.30;;;;;;;0.24;100.00;99578.44;5038278;28;20690;-68
2021/01/30 04:07:56;;;;;;;18.53;13.03;;;;;;;0.11;100.00;99586.69;5055855;28;20274;-68
2021/01/30 04:10:41;;;;;;;19.83;12.07;;;;;;;0.08;100.00;99584.50;5038194;28;20207;-68
2021/01/30 04:13:09;;;;;;;17.83;11.40;;;;;;;0.13;100.00;99589.97;5054862;28;20252;-68
2021/01/30 04:15:40;;;;;;;17.50;12.60;;;;;;;-0.05;100.00;99589.25;5044845;28;20516;-68
2021/01/30 04:18:06;;;;;;;21.17;12.57;;;;;;;-0.02;100.00;99588.78;5056954;28;20269;-68
2021/01/30 04:20:32;;;;;;;20.57;13.27;;;;;;;-0.04;100.00;99597.00;5090911;28;20226;-68
2021/01/30 04:22:57;;;;;;;21.70;14.00;;;;;;;-0.03;100.00;99598.66;5075148;28;20170;-68
2021/01/30 04:25:23;;;;;;;19.33;12.47;;;;;;;0.02;100.00;99601.44;5074104;28;20220;-68
2021/01/30 04:27:54;;;;;;;16.57;11.87;;;;;;;0.03;100.00;99606.53;5075116;28;20182;-68
2021/01/30 04:30:25;;;;;;;20.00;13.07;;;;;;;0.17;100.00;99609.81;5074734;28;20293;-68
2021/01/30 04:32:51;;;;;;;22.07;13.63;;;;;;;0.14;100.00;99610.25;5075194;28;20181;-68
2021/01/30 04:35:18;;;;;;;19.77;12.83;;;;;;;0.09;100.00;99618.97;5090519;28;20201;-70
2021/01/30 04:37:43;;;;;;;25.70;14.43;;;;;;;0.19;100.00;99624.53;5091142;28;20163;-68
2021/01/30 04:40:10;;;;;;;20.47;13.00;;;;;;;0.15;100.00;99630.56;5056981;28;20717;-68
2021/01/30 04:42:49;;;;;;;21.00;13.13;;;;;;;0.16;100.00;99629.50;5074651;28;20348;-68
2021/01/30 04:45:44;;;;;;;21.10;12.83;;;;;;;0.20;100.00;99628.84;5090528;28;20193;-68
2021/01/30 04:48:15;;;;;;;18.30;12.17;;;;;;;0.28;100.00;99622.34;5077358;28;20186;-68
2021/01/30 04:50:47;;;;;;;20.57;12.57;;;;;;;0.27;100.00;99626.84;5090405;28;20221;-68
2021/01/30 04:53:22;;;;;;;17.63;12.13;;;;;;;0.31;100.00;99630.66;5071647;28;20186;-68
2021/01/30 04:55:53;;;;;;;17.90;12.40;;;;;;;0.38;100.00;99627.91;5050639;28;20261;-68
2021/01/30 04:58:49;;;;;;;17.70;11.47;;;;;;;0.44;100.00;99623.25;5034348;28;20220;-68
2021/01/30 05:01:26;;;;;;;18.90;11.73;;;;;;;0.51;100.00;99623.13;5050228;28;20223;-68
2021/01/30 05:04:04;;;;;;;17.47;12.03;;;;;;;0.62;100.00;99624.97;5034680;28;20557;-68
2021/01/30 05:06:35;;;;;;;18.07;12.07;;;;;;;0.54;100.00;99628.81;5049937;28;20223;-68
2021/01/30 05:09:06;;;;;;;16.27;11.87;;;;;;;0.48;100.00;99627.09;5050684;28;20187;-68
2021/01/30 05:11:34;;;;;;;17.60;12.40;;;;;;;0.59;100.00;99625.47;5016730;28;20223;-68
2021/01/30 05:14:14;;;;;;;17.47;11.47;;;;;;;0.74;100.00;99623.13;5033719;28;20172;-68
2021/01/30 05:16:56;;;;;;;16.07;11.20;;;;;;;0.51;100.00;99623.97;5033483;28;20227;-68
2021/01/30 05:19:21;;;;;;;15.20;11.13;;;;;;;0.62;100.00;99628.44;5050613;28;20208;-68
2021/01/30 05:21:50;;;;;;;15.50;10.13;;;;;;;0.64;100.00;99626.38;5034822;28;20242;-68
2021/01/30 05:24:20;;;;;;;14.10;10.97;;;;;;;0.65;100.00;99622.66;5051646;28;20229;-68
2021/01/30 05:27:12;;;;;;;16.80;11.13;;;;;;;0.65;100.00;99630.66;5066546;28;20220;-68
2021/01/30 05:30:04;;;;;;;15.40;11.33;;;;;;;0.40;100.00;99632.78;5020169;28;20245;-68
2021/01/30 05:32:43;;;;;;;16.67;11.27;;;;;;;0.49;100.00;99635.91;5059604;28;20218;-68
2021/01/30 05:35:12;;;;;;;14.17;10.20;;;;;;;0.29;100.00;99645.31;5073324;28;20695;-68
2021/01/30 05:37:42;;;;;;;15.27;11.07;;;;;;;0.18;100.00;99646.09;5074217;28;20205;-68
2021/01/30 05:40:35;;;;;;;15.90;12.00;;;;;;;0.57;100.00;99639.03;5040394;28;20597;-68
2021/01/30 05:43:20;;;;;;;15.83;11.00;;;;;;;0.52;100.00;99651.47;5060029;28;20676;-68
2021/01/30 05:45:48;;;;;;;15.30;10.60;;;;;;;0.59;100.00;99650.31;5089681;28;20271;-68
2021/01/30 05:48:20;;;;;;;13.67;9.83;;;;;;;0.26;100.00;99651.13;5057283;28;20686;-68
2021/01/30 05:51:04;;;;;;;14.13;10.20;;;;;;;0.53;100.00;99648.56;5056642;28;20229;-69
2021/01/30 05:53:29;;;;;;;14.00;10.23;;;;;;;0.51;100.00;99650.66;5057037;28;20187;-67
2021/01/30 05:55:58;;;;;;;18.27;11.43;;;;;;;0.53;100.00;99648.56;5089569;28;20630;-67
2021/01/30 05:58:27;;;;;;;16.50;12.10;;;;;;;0.57;100.00;99655.06;5091900;28;20214;-67
2021/01/30 06:01:28;;;;;;;17.40;11.47;;;;;;;0.42;100.00;99657.41;5067792;28;20635;-68
2021/01/30 06:04:04;;;;;;;15.73;11.40;;;;;;;0.33;100.00;99657.13;5024063;28;20265;-67
2021/01/30 06:06:55;;;;;;;13.23;9.87;;;;;;;0.31;100.00;99667.25;5050413;28;20787;-67
2021/01/30 06:09:38;;;;;;;14.87;10.33;;;;;;;0.33;100.00;99665.16;5090871;28;20167;-67
2021/01/30 06:12:25;;;;;;;17.03;11.50;;;;;;;0.48;100.00;99667.13;5072708;28;20314;-67
2021/01/30 06:14:50;;;;;;;16.20;10.97;;;;;;;0.39;100.00;99663.19;5073235;28;20656;-67
2021/01/30 06:17:19;;;;;;;15.83;11.63;;;;;;;0.19;100.00;99667.22;5072944;28;20224;-67
2021/01/30 06:19:44;;;;;;;16.93;11.00;;;;;;;0.47;100.00;99664.69;5073011;28;20222;-67
2021/01/30 06:22:22;;;;;;;17.60;11.00;;;;;;;0.39;100.00;99665.06;5056724;28;20248;-67
2021/01/30 06:24:50;;;;;;;16.97;11.63;;;;;;;0.42;100.00;99672.56;5062238;28;20544;-68
2021/01/30 06:27:33;;;;;;;17.00;11.30;;;;;;;0.56;100.00;99676.66;5043098;28;20363;-68
2021/01/30 06:30:08;;;;;;;16.50;11.17;;;;;;;0.59;100.00;99679.69;5093741;28;20206;-67
2021/01/30 06:32:47;;;;;;;19.67;12.27;;;;;;;0.59;100.00;99682.34;5077358;28;20209;-67
2021/01/30 06:35:18;;;;;;;15.60;11.57;;;;;;;0.45;100.00;99690.81;5077370;28;20260;-67
2021/01/30 06:37:49;;;;;;;15.20;11.20;;;;;;;0.33;100.00;99690.00;5094232;28;20663;-68
2021/01/30 06:40:30;;;;;;;15.07;10.77;;;;;;;0.39;100.00;99695.22;5043883;28;20597;-67
2021/01/30 06:43:11;;;;;;;15.43;11.07;;;;;;;0.28;100.00;99697.09;5077479;28;20565;-67
2021/01/30 06:45:42;;;;;;;18.07;11.80;;;;;;;0.04;100.00;99695.41;5074543;28;20242;-67
2021/01/30 06:48:22;;;;;;;15.80;11.33;;;;;;;0.03;100.00;99704.44;5059958;28;20179;-67
2021/01/30 06:50:47;;;;;;;17.83;12.27;;;;;;;0.03;100.00;99691.09;5061387;28;20247;-67
2021/01/30 06:53:23;;;;;;;18.47;12.30;;;;;;;-0.08;100.00;99705.22;5076752;28;20174;-67
2021/01/30 06:55:51;;;;;;;20.00;13.13;;;;;;;-0.32;100.00;99706.19;5092434;28;20252;-67
2021/01/30 06:58:22;;;;;;;18.53;13.00;;;;;;;-0.39;100.00;99698.50;5093557;28;20181;-67
2021/01/30 07:00:48;;;;;;;20.70;13.10;;;;;;;-0.65;100.00;99709.50;5059055;28;20227;-67
2021/01/30 07:03:16;;;;;;;22.80;14.33;;;;;;;-0.46;100.00;99708.44;5056509;28;20240;-67
2021/01/30 07:06:10;;;;;;;20.70;12.73;;;;;;;-0.50;100.00;99716.06;5038782;28;20302;-67
2021/01/30 07:08:42;;;;;;;21.30;12.97;;;;;;;-0.48;100.00;99705.19;5056294;28;20183;-67
2021/01/30 07:11:28;;;;;;;24.30;14.17;;;;;;;-0.40;100.00;99713.69;5072327;28;20650;-67
2021/01/30 07:14:13;;;;;;;25.40;14.10;;;;;;;-0.52;100.00;99717.34;5073952;28;20190;-68
2021/01/30 07:16:48;;;;;;;24.90;14.17;;;;;;;-0.61;100.00;99721.34;5040278;28;20226;-68
2021/01/30 07:19:39;;;;;;;25.57;13.73;;;;;;;-0.58;100.00;99724.38;5039842;28;20579;-68
2021/01/30 07:22:17;;;;;;;30.07;14.23;;;;;;;-0.64;100.00;99732.44;5037512;28;20655;-67
2021/01/30 07:24:59;;;;;;;29.10;15.00;;;;;;;-0.67;100.00;99724.91;5056218;28;20182;-68
2021/01/30 07:27:32;;;;;;;34.57;17.10;;;;;;;-0.68;100.00;99736.59;5055011;28;20234;-68
2021/01/30 07:30:08;;;;;;;38.00;17.87;;;;;;;-0.53;100.00;99745.03;5057208;28;20544;-68
2021/01/30 07:32:52;;;;;;;36.77;17.87;;;;;;;-0.42;100.00;99738.94;5072285;28;20210;-68
2021/01/30 07:35:21;;;;;;;35.87;17.83;;;;;;;-0.42;100.00;99739.78;5054026;28;20195;-68
2021/01/30 07:37:52;;;;;;;34.90;17.47;;;;;;;-0.36;100.00;99745.00;5056000;28;20721;-68
2021/01/30 07:40:39;;;;;;;38.60;17.53;;;;;;;-0.36;100.00;99744.22;5038437;28;20219;-68
2021/01/30 07:43:13;;;;;;;37.00;18.20;;;;;;;-0.16;100.00;99742.09;5057682;28;20186;-68
2021/01/30 07:45:43;;;;;;;33.07;17.47;;;;;;;-0.34;100.00;99750.94;5038262;28;20231;-68
2021/01/30 07:48:26;;;;;;;33.40;17.33;;;;;;;-0.29;100.00;99755.59;5036848;28;20184;-69
2021/01/30 07:50:54;;;;;;;28.60;17.20;;;;;;;-0.12;100.00;99746.75;5037530;28;20225;-68
2021/01/30 07:53:24;;;;;;;31.77;16.63;;;;;;;-0.12;100.00;99752.06;5038130;28;20190;-69
2021/01/30 07:56:08;;;;;;;25.27;15.53;;;;;;;0.16;100.00;99757.63;5038057;28;20247;-69
2021/01/30 07:58:39;;;;;;;25.37;15.00;;;;;;;0.21;100.00;99761.22;5070073;28;20211;-69
2021/01/30 08:01:17;;;;;;;23.67;15.90;;;;;;;0.37;100.00;99759.75;5052164;28;20228;-69
2021/01/30 08:04:06;;;;;;;25.90;15.03;;;;;;;0.59;100.00;99764.34;5051417;28;20195;-68
2021/01/30 08:07:03;;;;;;;22.00;14.77;;;;;;;0.66;100.00;99765.84;5038219;28;20215;-69
2021/01/30 08:09:48;;;;;;;22.63;14.37;;;;;;;0.78;100.00;99764.78;5047852;28;20184;-68
2021/01/30 08:12:32;;;;;;;25.17;15.57;;;;;;;0.62;100.00;99763.84;5038665;28;20211;-68
2021/01/30 08:15:13;;;;;;;23.67;14.20;;;;;;;0.77;100.00;99762.38;5071763;28;20214;-68
2021/01/30 08:17:48;;;;;;;22.47;14.53;;;;;;;0.47;100.00;99766.97;5052836;28;20249;-68
2021/01/30 08:20:23;;;;;;;26.87;15.73;;;;;;;0.59;100.00;99767.81;5036637;28;20948;-68
2021/01/30 08:22:53;;;;;;;25.03;15.23;;;;;;;0.57;100.00;99767.22;5063917;28;20540;-69
2021/01/30 08:25:32;;;;;;;28.37;16.43;;;;;;;0.31;100.00;99760.66;5026917;28;20847;-68
2021/01/30 08:28:05;;;;;;;22.47;15.23;;;;;;;0.51;100.00;99761.97;5049279;28;20187;-68
2021/01/30 08:30:30;;;;;;;22.57;13.43;;;;;;;0.84;100.00;99757.72;5053240;28;20272;-68
2021/01/30 08:33:01;;;;;;;23.57;14.47;;;;;;;0.78;100.00;99758.66;5033385;28;20684;-68
2021/01/30 08:35:27;;;;;;;23.10;14.43;;;;;;;0.84;100.00;99768.41;5044708;28;20218;-68
2021/01/30 08:38:10;;;;;;;20.93;14.07;;;;;;;0.64;100.00;99764.44;5045386;28;20252;-68
2021/01/30 08:40:51;;;;;;;20.60;14.40;;;;;;;0.60;100.00;99769.44;5070448;28;20303;-69
2021/01/30 08:43:35;;;;;;;22.80;13.43;;;;;;;0.99;100.00;99776.78;5056037;28;20174;-69
2021/01/30 08:46:21;;;;;;;19.53;13.17;;;;;;;0.99;100.00;99766.91;5061110;28;20249;-70
2021/01/30 08:49:13;;;;;;;18.77;12.63;;;;;;;1.15;100.00;99767.03;5042923;28;20596;-68
2021/01/30 08:51:39;;;;;;;18.27;12.23;;;;;;;1.18;100.00;99771.88;5050186;28;20237;-68
2021/01/30 08:54:29;;;;;;;19.33;12.60;;;;;;;0.70;100.00;99772.38;5034355;28;20198;-68
2021/01/30 08:56:54;;;;;;;18.03;12.93;;;;;;;0.94;100.00;99779.34;5031614;28;20215;-68
2021/01/30 08:59:43;;;;;;;15.53;11.20;;;;;;;0.93;100.00;99769.69;5051337;28;20211;-68
2021/01/30 09:02:10;;;;;;;17.17;12.00;;;;;;;1.07;100.00;99779.09;5036104;28;20315;-68
2021/01/30 09:04:40;;;;;;;16.50;12.07;;;;;;;1.29;100.00;99779.09;5059225;28;20232;-69
2021/01/30 09:07:06;;;;;;;15.57;11.80;;;;;;;1.35;100.00;99793.38;5053814;28;20241;-68
2021/01/30 09:09:34;;;;;;;15.73;11.20;;;;;;;1.45;100.00;99789.06;5070543;28;20240;-68
2021/01/30 09:12:02;;;;;;;16.73;11.60;;;;;;;1.53;100.00;99791.38;5020244;28;20222;-68
2021/01/30 09:14:27;;;;;;;12.50;9.77;;;;;;;1.54;100.00;99793.00;5070088;28;20677;-68
2021/01/30 09:16:56;;;;;;;11.83;8.90;;;;;;;1.51;100.00;99790.00;5070175;28;20223;-68
2021/01/30 09:19:59;;;;;;;13.37;10.00;;;;;;;1.49;100.00;99790.22;5070264;28;20703;-68
2021/01/30 09:23:10;;;;;;;14.10;9.80;;;;;;;1.62;100.00;99797.97;5070061;28;20226;-68
2021/01/30 09:25:48;;;;;;;11.37;8.97;;;;;;;1.45;100.00;99793.59;5063442;28;20713;-68
2021/01/30 09:28:20;;;;;;;13.67;9.00;;;;;;;1.51;100.00;99788.13;5017106;28;20183;-68
2021/01/30 09:30:56;;;;;;;12.83;9.47;;;;;;;1.50;100.00;99791.03;5034661;28;20219;-68
2021/01/30 09:33:26;;;;;;;11.30;8.73;;;;;;;1.56;100.00;99790.91;5048001;28;20612;-69
2021/01/30 09:36:06;;;;;;;11.10;8.73;;;;;;;1.41;100.00;99795.09;5021034;28;20680;-69
2021/01/30 09:39:03;;;;;;;12.73;9.00;;;;;;;1.74;100.00;99799.59;5051208;28;20242;-68
2021/01/30 09:41:33;;;;;;;9.73;8.07;;;;;;;1.41;100.00;99803.13;5045599;28;20700;-68
2021/01/30 09:44:28;;;;;;;10.27;8.37;;;;;;;1.60;100.00;99800.09;5070671;28;20225;-68
2021/01/30 09:46:55;;;;;;;11.17;8.03;;;;;;;1.79;100.00;99802.34;5062180;28;20234;-68
2021/01/30 09:49:28;;;;;;;10.70;8.50;;;;;;;2.10;100.00;99797.34;5034014;28;20199;-68
2021/01/30 09:51:55;;;;;;;10.20;8.47;;;;;;;2.04;100.00;99800.19;5049228;28;20579;-69
2021/01/30 09:54:22;;;;;;;12.60;8.53;;;;;;;1.41;100.00;99803.13;5064104;28;20179;-69
2021/01/30 09:56:48;;;;;;;11.33;8.13;;;;;;;1.50;100.00;99802.53;5044940;28;20218;-68
2021/01/30 09:59:21;;;;;;;9.57;7.47;;;;;;;1.31;100.00;99809.06;5052305;28;20239;-68
2021/01/30 10:01:47;;;;;;;9.17;7.07;;;;;;;1.58;100.00;99807.53;5050370;28;20264;-68
2021/01/30 10:04:24;;;;;;;8.47;6.83;;;;;;;1.39;100.00;99816.75;5034155;28;20607;-68
2021/01/30 10:06:53;;;;;;;9.03;7.17;;;;;;;1.80;100.00;99811.22;5069787;28;20272;-68
2021/01/30 10:09:25;;;;;;;8.13;6.90;;;;;;;1.93;100.00;99809.88;5069856;28;20190;-69
2021/01/30 10:11:55;;;;;;;9.97;8.07;;;;;;;2.25;100.00;99813.69;5036483;28;20215;-71
2021/01/30 10:14:35;;;;;;;12.23;8.20;;;;;;;2.27;100.00;99816.94;5050837;28;20207;-71
2021/01/30 10:17:07;;;;;;;9.93;7.37;;;;;;;2.34;98.96;99821.13;5038461;28;20219;-70
2021/01/30 10:19:35;;;;;;;10.07;7.30;;;;;;;2.53;99.39;99819.88;5035999;28;20202;-70
2021/01/30 10:22:22;;;;;;;8.87;6.60;;;;;;;2.60;97.27;99830.41;5016999;28;20264;-71
2021/01/30 10:24:48;;;;;;;9.30;7.63;;;;;;;2.26;97.92;99825.25;5048378;28;20179;-72
2021/01/30 10:27:17;;;;;;;8.40;6.93;;;;;;;2.14;99.40;99830.63;5030875;28;20583;-71
2021/01/30 10:29:43;;;;;;;10.83;7.60;;;;;;;2.10;99.49;99818.78;5038998;28;20196;-71
2021/01/30 10:32:15;;;;;;;9.10;6.87;;;;;;;1.91;100.00;99827.22;5051575;28;20594;-71
2021/01/30 10:34:43;;;;;;;9.17;6.90;;;;;;;1.93;100.00;99825.94;5053582;28;20206;-70
2021/01/30 10:37:20;;;;;;;9.63;7.27;;;;;;;2.13;100.00;99826.34;5052424;28;20304;-71
2021/01/30 10:40:00;;;;;;;9.20;6.93;;;;;;;2.30;99.82;99816.47;5030219;28;20225;-70
2021/01/30 10:42:28;;;;;;;10.80;9.00;;;;;;;2.43;98.59;99816.19;5029873;28;20223;-70
2021/01/30 10:45:00;;;;;;;8.63;7.27;;;;;;;2.66;98.23;99826.81;5034248;28;20700;-72
2021/01/30 10:47:26;;;;;;;10.50;8.40;;;;;;;2.64;96.59;99823.53;5025640;28;20252;-70
2021/01/30 10:50:02;;;;;;;9.37;7.23;;;;;;;2.80;96.25;99812.81;5050195;28;20217;-69
2021/01/30 10:52:28;;;;;;;10.97;9.80;;;;;;;2.91;95.25;99818.13;5045493;28;20354;-70
2021/01/30 10:54:54;;;;;;;9.20;8.20;;;;;;;2.92;95.48;99814.38;5064201;28;20192;-70
2021/01/30 10:57:19;;;;;;;7.50;6.07;;;;;;;2.67;93.80;99813.97;5036449;28;20211;-71
2021/01/30 10:59:54;;;;;;;6.63;5.87;;;;;;;2.44;93.84;99815.16;5066898;28;20211;-72
2021/01/30 11:02:39;;;;;;;6.97;6.27;;;;;;;2.05;97.02;99818.69;5061621;28;20227;-70
2021/01/30 11:05:12;;;;;;;9.43;6.17;;;;;;;2.18;95.85;99807.72;5050152;28;20194;-71
2021/01/30 11:07:43;;;;;;;6.67;5.97;;;;;;;1.98;98.31;99817.22;5045534;28;20179;-70
2021/01/30 11:10:23;;;;;;;7.30;6.00;;;;;;;2.06;99.86;99814.94;5037836;28;20203;-70
2021/01/30 11:12:49;;;;;;;9.83;7.43;;;;;;;2.40;98.74;99813.97;5066960;28;20210;-71
2021/01/30 11:15:21;;;;;;;7.87;5.93;;;;;;;2.41;97.67;99807.59;5038774;28;20591;-71
2021/01/30 11:17:46;;;;;;;9.53;6.80;;;;;;;2.68;96.70;99810.22;5045455;28;20194;-71
2021/01/30 11:20:16;;;;;;;6.70;5.73;;;;;;;2.90;96.93;99797.72;5030732;28;20227;-70
2021/01/30 11:22:51;;;;;;;8.47;6.30;;;;;;;2.67;97.16;99800.56;5037514;28;20396;-70
2021/01/30 11:25:17;;;;;;;10.30;5.93;;;;;;;2.51;94.66;99802.38;5017027;28;20661;-72
2021/01/30 11:27:47;;;;;;;7.80;5.70;;;;;;;2.53;95.27;99795.75;5053391;28;20179;-71
2021/01/30 11:30:16;;;;;;;7.87;6.00;;;;;;;2.23;97.44;99799.75;5046353;28;21246;-71
2021/01/30 11:32:53;;;;;;;7.47;6.17;;;;;;;2.70;97.01;99796.56;5062428;28;20253;-71
2021/01/30 11:35:23;;;;;;;7.10;6.40;;;;;;;2.67;95.71;99795.22;5028190;28;20691;-70
2021/01/30 11:37:51;;;;;;;7.70;6.80;;;;;;;3.20;93.96;99798.19;5031635;28;20206;-70
2021/01/30 11:40:17;;;;;;;8.00;6.80;;;;;;;3.22;93.79;99796.06;5026351;28;20207;-70
2021/01/30 11:42:45;;;;;;;8.47;6.00;;;;;;;3.25;91.65;99799.06;5044843;28;20649;-69
2021/01/30 11:45:11;;;;;;;6.90;5.53;;;;;;;3.20;91.36;99793.63;5062674;28;20187;-70
2021/01/30 11:47:36;;;;;;;6.93;6.20;;;;;;;3.49;90.57;99805.84;5067322;28;20596;-70